Time;durP1;ratioP1;P1;durP2;ratioP2;P2;SDS_P1;SDS_P2;PMS_P1;PMS_P2;Temp;Humidity;BMP_temperature;BMP_pressure;BME280_temperature;BME280_humidity;BME280_pressure;Samples;Min_cycle;Max_cycle;Signal;HPM_P1;HPM_P2
2023/05/18 00:01:22;;;;;;;0.10;0.10;;;8.50;99.90;;;8.65;100.00;100417.84;4925979;28;20261;-78
2023/05/18 00:03:52;;;;;;;1.45;0.68;;;8.50;99.90;;;8.69;100.00;100423.16;4927503;29;20234;-78
2023/05/18 00:06:21;;;;;;;0.10;0.10;;;8.50;99.90;;;8.69;100.00;100425.81;4925477;28;20301;-78
2023/05/18 00:08:48;;;;;;;0.20;0.20;;;8.50;99.90;;;8.75;100.00;100439.97;4918392;29;20321;-78
2023/05/18 00:11:16;;;;;;;0.10;0.10;;;8.50;99.90;;;8.64;100.00;100428.34;4916868;28;20246;-78
2023/05/18 00:13:43;;;;;;;0.10;0.10;;;8.40;99.90;;;8.62;100.00;100424.81;4919820;28;20231;-78
2023/05/18 00:16:12;;;;;;;0.20;0.20;;;8.40;99.90;;;8.61;100.00;100423.94;4918958;28;20235;-78
2023/05/18 00:18:39;;;;;;;0.13;0.13;;;8.40;99.90;;;8.59;100.00;100427.41;4915461;28;20247;-78
2023/05/18 00:21:07;;;;;;;0.10;0.10;;;8.30;99.90;;;8.48;100.00;100427.22;4921092;28;20306;-78
2023/05/18 00:23:38;;;;;;;0.20;0.20;;;8.40;99.90;;;8.42;100.00;100435.00;4918762;28;20255;-78
2023/05/18 00:26:05;;;;;;;0.20;0.20;;;8.30;99.90;;;8.47;100.00;100438.63;4932339;28;20329;-78
2023/05/18 00:28:32;;;;;;;0.20;0.20;;;8.30;99.90;;;8.46;100.00;100454.41;4931540;28;20238;-78
2023/05/18 00:30:59;;;;;;;0.10;0.10;;;8.30;99.90;;;8.43;100.00;100457.88;4931197;28;20228;-78
2023/05/18 00:33:26;;;;;;;0.20;0.20;;;8.30;99.90;;;8.37;100.00;100452.50;4930945;28;20235;-78
2023/05/18 00:35:56;;;;;;;0.20;0.20;;;8.20;99.90;;;8.41;100.00;100475.41;4930486;28;20234;-78
2023/05/18 00:38:23;;;;;;;0.10;0.10;;;8.20;99.90;;;8.34;100.00;100462.97;4930128;28;20717;-78
2023/05/18 00:40:50;;;;;;;0.20;0.20;;;8.20;99.90;;;8.46;100.00;100484.28;4930624;28;20268;-78
2023/05/18 00:43:17;;;;;;;0.20;0.20;;;8.30;99.90;;;8.41;100.00;100483.31;4930748;28;20616;-78
2023/05/18 00:45:44;;;;;;;0.30;0.30;;;8.20;99.90;;;8.45;100.00;100494.78;4928937;28;20240;-78
2023/05/18 00:48:11;;;;;;;0.20;0.20;;;8.20;99.90;;;8.24;100.00;100477.69;4930875;28;20312;-78
2023/05/18 00:50:39;;;;;;;0.20;0.20;;;8.20;99.90;;;8.28;100.00;100484.78;4928771;29;20289;-78
2023/05/18 00:53:09;;;;;;;0.20;0.20;;;8.10;99.90;;;8.23;100.00;100488.19;4931133;29;20234;-78
2023/05/18 00:55:37;;;;;;;0.20;0.20;;;8.00;99.90;;;8.15;100.00;100485.41;4928358;29;20300;-78
2023/05/18 00:58:04;;;;;;;0.13;0.13;;;8.00;99.90;;;8.13;100.00;100497.66;4931948;28;20252;-77
2023/05/18 01:00:32;;;;;;;0.20;0.20;;;8.00;99.90;;;8.13;100.00;100502.94;4929763;28;20305;-78
2023/05/18 01:03:00;;;;;;;0.32;0.32;;;8.00;99.90;;;8.16;100.00;100523.19;4927711;29;20241;-77
2023/05/18 01:05:28;;;;;;;0.20;0.20;;;8.00;99.90;;;8.07;100.00;100521.25;4926642;28;20313;-78
2023/05/18 01:07:56;;;;;;;0.20;0.20;;;7.90;99.90;;;8.08;100.00;100520.41;4933581;28;20242;-78
2023/05/18 01:10:24;;;;;;;0.20;0.20;;;8.00;99.90;;;8.06;100.00;100529.13;4917058;28;20285;-78
2023/05/18 01:13:04;;;;;;;0.20;0.20;;;7.90;99.90;;;8.16;100.00;100550.41;4925071;29;20250;-78
2023/05/18 01:15:36;;;;;;;0.20;0.20;;;8.00;99.90;;;8.08;100.00;100551.13;4921892;28;20301;-78
2023/05/18 01:18:22;;;;;;;0.20;0.20;;;7.90;99.90;;;7.96;100.00;100534.19;4928032;28;20246;-78
2023/05/18 01:20:59;;;;;;;0.20;0.20;;;7.80;99.90;;;7.92;100.00;100549.91;4941308;28;20234;-78
2023/05/18 01:23:51;;;;;;;0.20;0.20;;;7.80;99.90;;;7.94;100.00;100569.25;4931005;28;20257;-78
2023/05/18 01:26:31;;;;;;;0.20;0.20;;;7.80;99.90;;;7.91;100.00;100577.97;4926116;28;20230;-77
2023/05/18 01:29:03;;;;;;;0.20;0.20;;;7.70;99.90;;;7.86;100.00;100594.53;4929635;28;20245;-77
2023/05/18 01:31:30;;;;;;;0.10;0.10;;;7.70;99.90;;;7.80;100.00;100595.28;4919597;28;20249;-78
2023/05/18 01:33:58;;;;;;;0.20;0.20;;;;;;;7.78;100.00;100602.22;4924601;28;20302;-78
2023/05/18 01:36:25;;;;;;;0.20;0.20;;;7.70;99.90;;;7.67;100.00;100599.34;4911065;29;20257;-78
2023/05/18 01:38:54;;;;;;;0.20;0.20;;;7.60;99.90;;;7.77;100.00;100626.78;4928723;28;20238;-77
2023/05/18 01:41:26;;;;;;;0.20;0.20;;;7.50;99.90;;;7.74;100.00;100624.06;4926201;28;20319;-77
2023/05/18 01:44:14;;;;;;;0.20;0.20;;;7.60;99.90;;;7.78;100.00;100641.72;4929673;28;20253;-78
2023/05/18 01:46:50;;;;;;;0.20;0.20;;;7.50;99.90;;;7.63;100.00;100634.34;4929345;29;20241;-78
2023/05/18 01:49:53;;;;;;;0.20;0.20;;;7.50;99.90;;;7.75;100.00;100654.81;4922257;28;20241;-78
2023/05/18 01:52:31;;;;;;;0.20;0.20;;;7.50;99.90;;;7.62;100.00;100648.34;4924657;29;20234;-78
2023/05/18 01:55:02;;;;;;;0.20;0.20;;;7.50;99.90;;;7.56;100.00;100650.84;4912407;29;20230;-78
2023/05/18 01:57:32;;;;;;;0.10;0.10;;;7.40;99.90;;;7.56;100.00;100656.09;4924445;28;20233;-78
2023/05/18 02:00:00;;;;;;;0.20;0.20;;;7.40;99.90;;;7.57;100.00;100660.50;4927741;29;20234;-78
2023/05/18 02:02:28;;;;;;;0.15;0.15;;;7.40;99.90;;;7.62;100.00;100685.22;4914178;28;20714;-78
2023/05/18 02:04:55;;;;;;;0.20;0.20;;;7.40;99.90;;;7.61;100.00;100691.31;4923911;28;20242;-78
2023/05/18 02:07:22;;;;;;;0.20;0.20;;;7.40;99.90;;;7.57;100.00;100702.63;4919881;28;20238;-78
2023/05/18 02:09:49;;;;;;;0.20;0.20;;;7.40;99.90;;;7.59;100.00;100695.66;4901503;29;20242;-78
2023/05/18 02:12:17;;;;;;;0.20;0.20;;;7.40;99.90;;;7.56;100.00;100707.84;4913661;28;20242;-78
2023/05/18 02:14:44;;;;;;;0.20;0.20;;;7.40;99.90;;;7.56;100.00;100711.38;4919223;29;20247;-78
2023/05/18 02:17:12;;;;;;;0.20;0.20;;;7.40;99.90;;;7.50;100.00;100711.22;4917549;28;20234;-78
2023/05/18 02:20:17;;;;;;;0.10;0.10;;;7.30;99.90;;;7.46;100.00;100722.50;4918122;28;20243;-78
2023/05/18 02:22:45;;;;;;;0.20;0.20;;;7.30;99.90;;;7.48;100.00;100723.44;4934642;28;20617;-78
2023/05/18 02:25:12;;;;;;;0.10;0.10;;;7.30;99.90;;;7.61;100.00;100743.06;4921979;28;20242;-78
2023/05/18 02:27:40;;;;;;;0.20;0.20;;;7.30;99.90;;;7.53;100.00;100742.88;4917778;28;20230;-78
2023/05/18 02:30:08;;;;;;;0.20;0.20;;;7.20;99.90;;;7.42;100.00;100730.28;4921167;29;20230;-78
2023/05/18 02:32:37;;;;;;;0.20;0.20;;;7.20;99.90;;;7.44;100.00;100728.59;4922056;28;20293;-77
2023/05/18 02:35:07;;;;;;;0.20;0.20;;;7.30;99.90;;;7.43;100.00;100754.00;4924001;29;20238;-78
2023/05/18 02:37:38;;;;;;;0.20;0.20;;;7.30;99.90;;;7.51;100.00;100754.22;4924372;28;20251;-77
2023/05/18 02:40:11;;;;;;;0.20;0.20;;;7.30;99.90;;;7.45;100.00;100746.16;4911052;29;20241;-77
2023/05/18 02:42:39;;;;;;;0.20;0.20;;;7.20;99.90;;;7.45;100.00;100754.94;4912645;29;20290;-77
2023/05/18 02:45:07;;;;;;;0.20;0.20;;;7.30;99.90;;;7.46;100.00;100767.25;4924907;29;20245;-78
2023/05/18 02:47:34;;;;;;;0.20;0.20;;;7.30;99.90;;;7.45;100.00;100767.19;4926200;28;20917;-77
2023/05/18 02:50:02;;;;;;;0.30;0.30;;;7.30;99.90;;;7.38;100.00;100766.16;4925024;29;20321;-77
2023/05/18 02:52:30;;;;;;;0.20;0.20;;;7.20;99.90;;;7.38;100.00;100759.16;4922796;28;20237;-77
2023/05/18 02:54:57;;;;;;;0.20;0.20;;;7.10;99.90;;;7.41;100.00;100770.59;4924850;29;20337;-78
2023/05/18 02:57:25;;;;;;;0.20;0.20;;;7.10;99.90;;;7.35;100.00;100764.31;4926341;28;20266;-78
2023/05/18 02:59:52;;;;;;;0.20;0.20;;;7.10;99.90;;;7.36;100.00;100770.47;4922926;28;20338;-78
2023/05/18 03:02:22;;;;;;;0.20;0.20;;;7.20;99.90;;;7.43;100.00;100776.81;4924581;28;20237;-78
2023/05/18 03:04:56;;;;;;;0.20;0.20;;;7.20;99.90;;;7.39;100.00;100787.25;4928102;29;20321;-78
2023/05/18 03:07:23;;;;;;;0.20;0.20;;;7.20;99.90;;;7.43;100.00;100790.84;4932235;28;20254;-78
2023/05/18 03:09:51;;;;;;;0.20;0.20;;;7.20;99.90;;;7.50;100.00;100813.84;4926900;28;20258;-77
2023/05/18 03:12:19;;;;;;;0.20;0.20;;;;;;;7.38;100.00;100798.63;4927851;28;20222;-78
2023/05/18 03:14:46;;;;;;;0.20;0.20;;;7.20;99.90;;;7.45;100.00;100796.16;4927448;28;20246;-77
2023/05/18 03:17:13;;;;;;;0.20;0.20;;;7.20;99.90;;;7.34;100.00;100798.47;4924327;29;20329;-78
2023/05/18 03:19:41;;;;;;;0.20;0.20;;;7.20;99.90;;;7.34;100.00;100796.75;4925681;28;20321;-78
2023/05/18 03:22:08;;;;;;;0.20;0.20;;;7.20;99.90;;;7.36;100.00;100792.41;4928226;29;20695;-78
2023/05/18 03:24:39;;;;;;;0.20;0.20;;;7.20;99.90;;;7.31;100.00;100795.78;4926649;28;20230;-77
2023/05/18 03:27:06;;;;;;;0.20;0.20;;;7.10;99.90;;;7.44;100.00;100815.41;4929239;28;20402;-78
2023/05/18 03:29:34;;;;;;;0.20;0.20;;;7.30;99.90;;;7.37;100.00;100814.34;4929706;28;20596;-77
2023/05/18 03:32:01;;;;;;;0.20;0.20;;;7.20;99.90;;;7.37;100.00;100803.84;4931755;28;20246;-78
2023/05/18 03:34:28;;;;;;;0.10;0.10;;;;;;;7.41;100.00;100804.81;4931957;28;20637;-78
2023/05/18 03:36:56;;;;;;;0.20;0.20;;;7.20;99.90;;;7.45;100.00;100815.47;4930248;28;20317;-78
2023/05/18 03:39:24;;;;;;;0.20;0.20;;;7.30;99.90;;;7.48;100.00;100807.66;4926590;28;20238;-78
2023/05/18 03:41:51;;;;;;;0.20;0.20;;;7.30;99.90;;;7.38;100.00;100809.13;4926994;28;20245;-77
2023/05/18 03:44:18;;;;;;;0.20;0.20;;;7.20;99.90;;;7.35;100.00;100811.69;4927844;28;20242;-78
2023/05/18 03:46:45;;;;;;;0.20;0.20;;;7.20;99.90;;;7.34;100.00;100804.63;4932440;28;20647;-77
2023/05/18 03:49:12;;;;;;;0.10;0.10;;;7.20;99.90;;;7.44;100.00;100820.69;4927860;28;20261;-78
2023/05/18 03:51:39;;;;;;;0.20;0.20;;;7.20;99.90;;;7.28;100.00;100815.00;4924427;28;20745;-77
2023/05/18 03:54:07;;;;;;;0.20;0.20;;;;;;;7.31;100.00;100811.56;4929442;29;20234;-78
2023/05/18 03:56:34;;;;;;;0.20;0.20;;;7.10;99.90;;;7.30;100.00;100834.34;4917454;29;20230;-78
2023/05/18 03:59:02;;;;;;;0.10;0.10;;;7.20;99.90;;;7.31;100.00;100828.22;4929993;28;20239;-78
2023/05/18 04:01:33;;;;;;;0.20;0.20;;;7.10;99.90;;;7.25;100.00;100822.78;4929997;28;20234;-78
2023/05/18 04:04:00;;;;;;;0.10;0.10;;;8.00;99.90;;;7.23;100.00;100826.22;4928646;28;20297;-77
2023/05/18 04:06:27;;;;;;;0.20;0.20;;;7.10;99.90;;;7.21;100.00;100833.19;4933608;28;20289;-78
2023/05/18 04:08:54;;;;;;;0.20;0.20;;;7.10;99.90;;;7.27;100.00;100850.03;4933287;28;20242;-77
2023/05/18 04:11:21;;;;;;;0.20;0.20;;;7.10;99.90;;;7.29;100.00;100857.97;4934503;28;20243;-78
2023/05/18 04:13:49;;;;;;;0.10;0.10;;;7.10;99.90;;;7.28;100.00;100853.56;4932892;29;20238;-78
2023/05/18 04:16:17;;;;;;;0.20;0.20;;;7.10;99.90;;;7.17;100.00;100853.25;4921876;28;20242;-78
2023/05/18 04:18:44;;;;;;;0.30;0.30;;;7.00;99.90;;;7.10;100.00;100855.66;4925678;29;20250;-77
2023/05/18 04:21:11;;;;;;;0.20;0.20;;;;;;;7.21;100.00;100863.00;4927094;28;20238;-78
2023/05/18 04:23:39;;;;;;;0.20;0.20;;;7.00;99.90;;;7.14;100.00;100873.31;4926493;28;20249;-78
2023/05/18 04:26:07;;;;;;;0.25;0.25;;;6.90;99.90;;;7.09;100.00;100880.16;4927267;28;20296;-78
2023/05/18 04:28:36;;;;;;;0.20;0.20;;;;;;;7.13;100.00;100888.19;4930119;29;20595;-77
2023/05/18 04:31:04;;;;;;;0.20;0.20;;;;;;;7.09;100.00;100898.59;4935261;28;20301;-78
2023/05/18 04:33:32;;;;;;;0.20;0.20;;;6.90;99.90;;;7.05;100.00;100910.75;4929221;28;20231;-77
2023/05/18 04:36:03;;;;;;;0.10;0.10;;;6.90;99.90;;;7.13;100.00;100926.75;4934127;28;20242;-77
2023/05/18 04:38:33;;;;;;;0.20;0.20;;;7.00;99.90;;;7.21;100.00;100925.25;4933367;28;20238;-78
2023/05/18 04:41:04;;;;;;;0.10;0.10;;;;;;;7.15;100.00;100925.06;4932463;28;20611;-77
2023/05/18 04:43:31;;;;;;;0.20;0.20;;;7.00;99.90;;;7.15;100.00;100939.13;4934664;28;20234;-77
2023/05/18 04:45:58;;;;;;;0.20;0.20;;;7.00;99.90;;;7.20;100.00;100945.41;4931390;28;20261;-80
2023/05/18 04:48:26;;;;;;;0.20;0.20;;;7.00;99.90;;;7.21;100.00;100944.56;4934958;28;20241;-78
2023/05/18 04:50:54;;;;;;;0.20;0.20;;;7.00;99.90;;;7.28;100.00;100954.41;4929942;29;20253;-79
2023/05/18 04:53:22;;;;;;;0.20;0.20;;;;;;;7.27;100.00;100950.00;4933468;28;20237;-78
2023/05/18 04:55:50;;;;;;;0.20;0.20;;;;;;;7.26;100.00;100965.75;4930284;29;20254;-78
2023/05/18 04:58:17;;;;;;;0.20;0.20;;;7.10;99.90;;;7.33;100.00;100955.47;4934738;28;20242;-78
2023/05/18 05:00:44;;;;;;;0.20;0.20;;;7.20;99.90;;;7.37;100.00;100969.59;4931660;28;20246;-78
2023/05/18 05:03:11;;;;;;;0.32;0.32;;;7.20;99.90;;;7.44;100.00;100981.19;4931256;28;20561;-78
2023/05/18 05:05:38;;;;;;;0.20;0.20;;;7.30;99.90;;;7.48;100.00;100969.91;4928112;28;20245;-79
2023/05/18 05:08:06;;;;;;;0.20;0.20;;;7.30;99.90;;;7.57;100.00;100983.34;4927309;28;20254;-79
2023/05/18 05:10:33;;;;;;;0.20;0.20;;;7.30;99.90;;;7.57;100.00;100975.47;4931379;28;20330;-79
2023/05/18 05:13:00;;;;;;;0.20;0.20;;;7.40;99.90;;;7.62;100.00;100973.84;4928275;28;20235;-78
2023/05/18 05:15:27;;;;;;;0.20;0.20;;;7.50;99.90;;;7.67;100.00;100978.41;4923820;29;20239;-79
2023/05/18 05:17:57;;;;;;;0.20;0.20;;;7.50;99.90;;;7.76;100.00;100974.25;4929449;28;20242;-78
2023/05/18 05:20:24;;;;;;;0.20;0.20;;;7.50;99.90;;;7.78;100.00;100970.81;4925543;28;20845;-78
2023/05/18 05:22:51;;;;;;;0.20;0.20;;;7.60;99.90;;;7.83;100.00;100977.13;4929099;28;20246;-79
2023/05/18 05:25:19;;;;;;;0.20;0.20;;;;;;;7.89;100.00;100972.03;4931347;28;20241;-79
2023/05/18 05:27:47;;;;;;;0.20;0.20;;;7.70;99.90;;;7.88;100.00;100967.63;4931117;28;20711;-78
2023/05/18 05:30:14;;;;;;;0.20;0.20;;;;;;;7.87;100.00;100960.56;4927529;28;20264;-78
2023/05/18 05:32:42;;;;;;;0.20;0.20;;;;;;;7.94;100.00;100959.91;4930833;28;20238;-79
2023/05/18 05:35:09;;;;;;;0.20;0.20;;;7.80;99.90;;;8.06;100.00;100963.72;4931997;29;20238;-79
2023/05/18 05:37:36;;;;;;;0.28;0.28;;;7.90;99.90;;;8.17;100.00;100972.81;4932078;28;20302;-78
2023/05/18 05:40:05;;;;;;;0.20;0.20;;;7.90;99.90;;;8.13;100.00;100973.56;4934806;29;20701;-79
2023/05/18 05:42:32;;;;;;;0.20;0.20;;;7.90;99.90;;;8.22;100.00;100971.19;4944107;28;20235;-79
2023/05/18 05:45:00;;;;;;;0.20;0.20;;;;;;;8.25;100.00;100974.81;4927656;28;20239;-79
2023/05/18 05:47:27;;;;;;;0.20;0.20;;;8.10;99.90;;;8.30;100.00;100973.19;4931560;28;20238;-79
2023/05/18 05:49:54;;;;;;;0.20;0.20;;;8.10;99.90;;;8.34;100.00;100979.47;4934215;28;20234;-80
2023/05/18 05:52:22;;;;;;;0.20;0.20;;;8.10;99.90;;;8.39;100.00;100974.31;4929312;28;20231;-79
2023/05/18 05:54:49;;;;;;;0.17;0.17;;;;;;;8.53;100.00;100967.66;4930519;28;20260;-79
2023/05/18 05:57:16;;;;;;;0.20;0.20;;;8.30;99.90;;;8.54;100.00;100969.44;4932862;28;20235;-79
2023/05/18 05:59:43;;;;;;;1.23;1.23;;;8.40;99.90;;;8.56;100.00;100973.91;4927482;28;20261;-79
2023/05/18 06:02:11;;;;;;;0.20;0.20;;;7.50;99.90;;;8.80;100.00;100996.47;4929993;28;20287;-79
2023/05/18 06:04:38;;;;;;;0.95;0.95;;;8.50;99.90;;;8.76;100.00;100976.13;4925549;28;20263;-77
2023/05/18 06:07:06;;;;;;;0.10;0.10;;;8.50;99.90;;;8.66;100.00;100975.03;4930312;28;20231;-78
2023/05/18 06:09:33;;;;;;;0.28;0.28;;;8.60;99.90;;;8.95;100.00;100984.53;4926745;28;20237;-79
2023/05/18 06:12:00;;;;;;;0.17;0.17;;;8.60;99.90;;;9.14;100.00;101000.84;4932973;29;20249;-79
2023/05/18 06:14:27;;;;;;;0.10;0.10;;;8.80;99.90;;;9.16;100.00;100980.66;4928506;28;20241;-80
2023/05/18 06:16:54;;;;;;;0.20;0.20;;;8.90;99.90;;;9.18;100.00;100960.47;4925326;28;20246;-80
2023/05/18 06:19:21;;;;;;;0.20;0.20;;;9.20;99.90;;;9.39;100.00;100960.06;4919976;28;20234;-80
2023/05/18 06:21:49;;;;;;;0.10;0.10;;;9.10;99.90;;;9.25;100.00;100947.47;4929630;28;20289;-79
2023/05/18 06:24:16;;;;;;;0.20;0.20;;;9.10;99.90;;;9.44;100.00;100947.88;4929550;28;20250;-78
2023/05/18 06:26:44;;;;;;;0.22;0.22;;;9.30;99.90;;;9.41;100.00;100938.13;4931517;28;20250;-78
2023/05/18 06:29:11;;;;;;;0.20;0.20;;;;;;;9.49;100.00;100925.97;4939852;28;20246;-79
2023/05/18 06:31:39;;;;;;;0.22;0.22;;;;;;;9.56;100.00;100914.69;4932732;28;20238;-79
2023/05/18 06:34:06;;;;;;;0.20;0.20;;;9.30;99.90;;;9.88;100.00;100933.81;4934008;28;20234;-79
2023/05/18 06:36:33;;;;;;;0.20;0.20;;;;;;;9.74;100.00;100894.78;4935231;28;20253;-79
2023/05/18 06:39:01;;;;;;;0.10;0.10;;;9.50;99.90;;;9.77;100.00;100879.00;4932219;28;20234;-80
2023/05/18 06:41:28;;;;;;;0.10;0.10;;;;;;;9.72;100.00;100860.44;4932343;28;20261;-79
2023/05/18 06:43:59;;;;;;;0.20;0.20;;;9.50;99.90;;;10.03;100.00;100890.06;4935610;28;20302;-80
2023/05/18 06:46:26;;;;;;;0.10;0.10;;;9.70;99.90;;;10.40;100.00;100926.94;4932446;28;20250;-80
2023/05/18 06:48:53;;;;;;;0.20;0.20;;;10.00;99.90;;;10.34;100.00;100892.41;4936435;28;20298;-80
2023/05/18 06:51:20;;;;;;;0.20;0.20;;;10.10;99.90;;;10.39;100.00;100871.34;4936190;28;20249;-80
2023/05/18 06:53:49;;;;;;;0.20;0.20;;;10.10;99.90;;;10.40;100.00;100855.53;4936081;28;20249;-81
2023/05/18 06:56:17;;;;;;;0.20;0.20;;;;;;;10.74;100.00;100882.53;4935476;28;20238;-81
2023/05/18 06:58:45;;;;;;;0.10;0.10;;;10.40;99.90;;;10.88;100.00;100879.22;4924974;28;20239;-81
2023/05/18 07:01:12;;;;;;;0.20;0.20;;;10.60;99.90;;;10.78;100.00;100827.03;4926164;28;20239;-77
2023/05/18 07:03:39;;;;;;;0.20;0.20;;;10.60;99.90;;;10.95;100.00;100816.69;4930454;28;20301;-80
2023/05/18 07:06:07;;;;;;;0.20;0.20;;;10.70;99.90;;;11.08;100.00;100785.97;4926026;28;20264;-80
2023/05/18 07:08:35;;;;;;;0.20;0.20;;;;;;;11.12;100.00;100762.22;4932940;28;20227;-80
2023/05/18 07:11:04;;;;;;;0.10;0.10;;;11.00;99.90;;;11.22;100.00;100750.84;4931847;28;20249;-80
2023/05/18 07:13:31;;;;;;;0.20;0.20;;;11.10;99.90;;;11.39;100.00;100739.56;4927503;28;20238;-79
2023/05/18 07:15:58;;;;;;;0.20;0.20;;;11.20;99.90;;;11.38;100.00;100711.31;4932150;28;20246;-78
2023/05/18 07:18:26;;;;;;;0.10;0.10;;;11.20;99.90;;;11.60;100.00;100726.53;4929091;28;20253;-79
2023/05/18 07:20:53;;;;;;;0.20;0.20;;;11.30;99.90;;;11.86;100.00;100724.19;4930583;28;20242;-79
2023/05/18 07:23:21;;;;;;;0.45;0.45;;;11.60;99.90;;;12.15;100.00;100741.22;4933766;28;20238;-79
2023/05/18 07:25:48;;;;;;;0.10;0.10;;;11.80;99.90;;;11.88;100.00;100668.53;4929872;28;20715;-79
2023/05/18 07:28:15;;;;;;;0.10;0.10;;;11.80;99.90;;;12.26;100.00;100668.78;4931896;29;20251;-79
2023/05/18 07:30:43;;;;;;;0.13;0.13;;;11.90;99.90;;;12.26;100.00;100659.06;4927461;28;20234;-79
2023/05/18 07:33:10;;;;;;;0.30;0.30;;;12.00;99.90;;;12.28;100.00;100632.56;4934604;28;20234;-80
2023/05/18 07:35:37;;;;;;;0.10;0.10;;;12.00;99.90;;;12.19;100.00;100591.00;4939917;28;20242;-79
2023/05/18 07:38:05;;;;;;;0.20;0.20;;;;;;;12.32;100.00;100579.56;4934361;28;20245;-80
2023/05/18 07:40:32;;;;;;;0.10;0.10;;;12.10;99.90;;;12.55;100.00;100566.38;4928570;28;20238;-79
2023/05/18 07:42:59;;;;;;;0.10;0.10;;;12.30;99.90;;;12.41;100.00;100515.06;4931501;28;20234;-80
2023/05/18 07:45:26;;;;;;;0.30;0.30;;;12.20;99.90;;;12.57;100.00;100550.47;4925840;28;20250;-79
2023/05/18 07:47:53;;;;;;;0.10;0.10;;;12.50;99.90;;;12.95;100.00;100537.25;4927639;28;20254;-81
2023/05/18 07:50:20;;;;;;;0.20;0.20;;;12.60;99.90;;;13.10;100.00;100524.03;4926899;28;20716;-79
2023/05/18 07:52:48;;;;;;;0.10;0.10;;;12.90;99.90;;;13.12;100.00;100503.69;4940731;28;20234;-79
2023/05/18 07:55:23;;;;;;;0.10;0.10;;;13.10;99.90;;;13.44;100.00;100516.97;4943509;28;20337;-79
2023/05/18 07:58:09;;;;;;;0.10;0.10;;;13.00;99.90;;;13.07;100.00;100431.09;4941567;28;20238;-80
2023/05/18 08:00:43;;;;;;;0.10;0.10;;;;;;;13.54;100.00;100470.00;4938047;28;20229;-80
2023/05/18 08:03:10;;;;;;;0.10;0.10;;;13.20;99.90;;;13.63;100.00;100438.97;4941356;28;20230;-80
2023/05/18 08:05:37;;;;;;;0.20;0.20;;;13.20;99.90;;;13.33;100.00;100393.91;4938047;28;20234;-80
2023/05/18 08:08:04;;;;;;;0.00;0.00;;;13.20;99.90;;;13.92;100.00;100441.50;4946030;28;20238;-80
2023/05/18 08:10:33;;;;;;;0.10;0.10;;;13.50;99.90;;;13.91;100.00;100396.34;4932661;28;20238;-80
2023/05/18 08:13:00;;;;;;;0.10;0.10;;;13.70;99.90;;;13.92;100.00;100376.84;4939784;28;20238;-80
2023/05/18 08:15:27;;;;;;;0.10;0.10;;;13.80;99.90;;;13.96;100.00;100370.59;4944217;28;20234;-80
2023/05/18 08:17:55;;;;;;;1.30;1.17;;;13.90;99.90;;;14.09;100.00;100330.63;4940563;28;20321;-80
2023/05/18 08:20:24;;;;;;;0.10;0.10;;;13.90;99.90;;;14.14;100.00;100325.28;4928576;28;20242;-79
2023/05/18 08:22:51;;;;;;;0.10;0.10;;;;;;;13.77;100.00;100237.81;4929385;28;20742;-80
2023/05/18 08:25:19;;;;;;;0.10;0.10;;;13.70;99.90;;;14.34;100.00;100311.84;4944611;28;20238;-81
2023/05/18 08:27:46;;;;;;;0.20;0.20;;;14.00;99.90;;;14.82;100.00;100301.69;4936091;28;20331;-81
2023/05/18 08:30:14;;;;;;;0.10;0.10;;;14.40;99.90;;;14.82;100.00;100267.06;4916443;29;20315;-81
2023/05/18 08:32:41;;;;;;;0.28;0.28;;;14.60;99.90;;;14.88;100.00;100248.38;4938372;28;20305;-80
2023/05/18 08:35:09;;;;;;;0.10;0.10;;;14.50;99.90;;;14.85;100.00;100249.28;4934645;28;20238;-79
2023/05/18 08:37:37;;;;;;;0.10;0.10;;;14.90;99.90;;;15.09;100.00;100221.47;4933614;28;20235;-80
2023/05/18 08:40:09;;;;;;;0.10;0.10;;;14.90;99.90;;;15.32;100.00;100194.53;4929626;28;20290;-80
2023/05/18 08:42:51;;;;;;;0.10;0.10;;;15.00;99.90;;;15.15;100.00;100162.81;4933623;28;20234;-80
2023/05/18 08:45:45;;;;;;;0.10;0.10;;;14.90;99.90;;;15.67;100.00;100216.28;4931783;29;20242;-80
2023/05/18 08:48:15;;;;;;;0.00;0.00;;;15.30;99.90;;;15.55;100.00;100151.56;4933067;29;20243;-81
2023/05/18 08:50:43;;;;;;;0.30;0.30;;;15.60;99.90;;;15.81;100.00;100152.06;4933907;28;20248;-80
2023/05/18 08:53:11;;;;;;;0.10;0.10;;;15.60;99.90;;;15.88;100.00;100131.53;4940166;29;20257;-80
2023/05/18 08:55:40;;;;;;;0.17;0.17;;;15.70;99.90;;;15.57;100.00;99997.81;4929123;28;20238;-79
2023/05/18 08:58:10;;;;;;;0.10;0.10;;;15.60;99.90;;;15.68;100.00;100014.56;4933489;28;20317;-80
2023/05/18 09:00:37;;;;;;;0.30;0.30;;;15.40;99.90;;;15.71;100.00;100027.84;4934331;28;20273;-79
2023/05/18 09:03:05;;;;;;;0.00;0.00;;;15.60;99.90;;;15.87;100.00;99989.31;4937828;28;20241;-80
2023/05/18 09:05:32;;;;;;;0.10;0.10;;;15.70;99.90;;;15.90;100.00;100012.38;4932393;28;20261;-80
2023/05/18 09:08:02;;;;;;;0.10;0.10;;;15.70;99.90;;;15.68;100.00;99945.25;4932355;29;20309;-80
2023/05/18 09:10:32;;;;;;;0.00;0.00;;;15.60;99.90;;;15.56;100.00;99926.78;4934145;28;20238;-79
2023/05/18 09:13:01;;;;;;;0.10;0.10;;;15.50;99.90;;;15.63;100.00;99942.69;4935896;28;20328;-79
2023/05/18 09:15:28;;;;;;;0.25;0.25;;;15.50;99.90;;;15.81;100.00;99965.44;4933277;29;20234;-79
2023/05/18 09:17:56;;;;;;;0.13;0.13;;;15.60;99.90;;;16.00;100.00;99939.28;4933785;28;20240;-79
2023/05/18 09:20:26;;;;;;;0.10;0.10;;;15.80;99.90;;;15.91;100.00;99896.81;4914305;29;20247;-80
2023/05/18 09:22:53;;;;;;;0.00;0.00;;;15.80;99.90;;;15.95;100.00;99870.03;4914783;28;20262;-79
2023/05/18 09:25:22;;;;;;;0.10;0.10;;;15.70;99.90;;;16.57;100.00;99858.81;4933818;28;20263;-79
2023/05/18 09:27:51;;;;;;;0.25;0.25;;;16.30;99.90;;;16.97;100.00;99852.53;4931003;28;20301;-79
2023/05/18 09:30:19;;;;;;;0.10;0.10;;;16.60;99.90;;;17.19;100.00;99856.38;4927844;28;20242;-78
2023/05/18 09:32:47;;;;;;;0.10;0.10;;;20.90;99.90;;;16.77;100.00;99781.78;4927910;28;20253;-79
2023/05/18 09:35:14;;;;;;;0.00;0.00;;;16.80;99.90;;;17.11;100.00;99786.25;4899845;28;20253;-80
2023/05/18 09:37:42;;;;;;;0.00;0.00;;;16.80;99.90;;;17.27;100.00;99759.06;4919621;28;20234;-81
2023/05/18 09:40:11;;;;;;;0.00;0.00;;;17.10;99.90;;;17.67;100.00;99773.94;4918593;29;20238;-82
2023/05/18 09:42:42;;;;;;;0.15;0.15;;;17.40;99.90;;;17.61;100.00;99747.34;4937251;28;20234;-81
2023/05/18 09:45:27;;;;;;;0.10;0.10;;;17.40;99.90;;;17.72;100.00;99705.16;4941363;28;20246;-81
2023/05/18 09:47:55;;;;;;;0.47;0.22;;;17.80;99.90;;;17.92;100.00;99678.63;4940075;28;20317;-80
2023/05/18 09:50:24;;;;;;;0.65;0.25;;;17.80;99.90;;;17.78;100.00;99576.59;4940599;28;20230;-81
2023/05/18 09:52:51;;;;;;;0.00;0.00;;;18.10;99.90;;;18.03;100.00;99654.19;4931302;28;20368;-81
2023/05/18 09:55:19;;;;;;;0.00;0.00;;;17.90;99.90;;;17.82;100.00;99582.69;4935859;28;20317;-80
2023/05/18 09:57:49;;;;;;;0.00;0.00;;;17.80;99.90;;;17.86;100.00;99529.06;4947776;28;20246;-81
2023/05/18 10:00:19;;;;;;;0.00;0.00;;;17.80;99.90;;;18.46;100.00;99609.91;4939999;28;20269;-80
2023/05/18 10:02:51;;;;;;;0.00;0.00;;;18.20;99.90;;;17.87;100.00;99508.53;4930313;28;20242;-81
2023/05/18 10:05:33;;;;;;;0.03;0.03;;;17.80;99.90;;;18.52;100.00;99526.69;4908871;29;20714;-80
2023/05/18 10:08:02;;;;;;;0.03;0.03;;;18.90;99.90;;;18.91;100.00;99524.31;4913694;29;20231;-81
2023/05/18 10:10:30;;;;;;;0.00;0.00;;;;;;;18.37;100.00;99407.69;4921866;29;20254;-81
2023/05/18 10:12:57;;;;;;;0.10;0.10;;;;;;;18.17;100.00;99419.13;4918492;28;20245;-80
2023/05/18 10:15:25;;;;;;;0.10;0.10;;;;;;;17.72;100.00;99298.69;4917060;29;20764;-79
2023/05/18 10:17:56;;;;;;;0.00;0.00;;;17.90;99.90;;;18.27;100.00;99411.66;4919510;28;20246;-79
2023/05/18 10:20:25;;;;;;;0.00;0.00;;;18.50;99.90;;;18.49;100.00;99427.75;4923735;28;20234;-79
2023/05/18 10:22:55;;;;;;;0.10;0.10;;;18.50;98.50;;;18.66;100.00;99381.59;4929337;28;20252;-81
2023/05/18 10:25:25;;;;;;;0.00;0.00;;;18.50;99.00;;;18.99;100.00;99347.16;4927378;28;20318;-80
2023/05/18 10:28:00;;;;;;;0.00;0.00;;;18.70;97.00;;;18.77;97.26;99213.28;4943141;28;20288;-80
2023/05/18 10:30:27;;;;;;;0.00;0.00;;;18.40;97.20;;;18.31;98.21;99145.63;4941633;28;20245;-79